Time,TemperatureF,DewpointF,PressureIn,WindDirection,WindDirectionDegrees,WindSpeedMPH,WindSpeedGustMPH,Humidity,HourlyPrecipIn,Conditions,Clouds,dailyrainin,SoftwareType,DateUTC
2013-02-08 00:00:00,12.4,-10.1,30.03,NE,45,0.0,0.0,35,0.00,,---,0.00,VWS V14.01,2013-02-08 05:00:00,
2013-02-08 00:01:00,12.4,-10.1,30.03,NE,45,0.0,0.0,35,0.00,,---,0.00,VWS V14.01,2013-02-08 05:01:00,
2013-02-08 00:02:00,12.4,-10.1,30.03,NE,45,0.0,0.0,35,0.00,,---,0.00,VWS V14.01,2013-02-08 05:02:00,
2013-02-08 00:03:00,12.4,-10.1,30.03,NE,45,0.0,0.0,35,0.00,,---,0.00,VWS V14.01,2013-02-08 05:03:00,
2013-02-08 00:07:00,12.2,-10.2,30.03,NE,45,0.0,0.0,35,0.00,,---,0.00,VWS V14.01,2013-02-08 05:07:00,
2013-02-08 00:12:00,12.2,-10.2,30.03,NE,45,0.0,0.0,35,0.00,,---,0.00,VWS V14.01,2013-02-08 05:12:00,
2013-02-08 00:17:00,12.2,-10.2,30.03,NE,45,0.0,0.0,35,0.00,,---,0.00,VWS V14.01,2013-02-08 05:17:00,
2013-02-08 00:23:00,12.4,-10.1,30.03,NE,45,1.1,1.6,35,0.00,,---,0.00,VWS V14.01,2013-02-08 05:23:00,
2013-02-08 00:29:00,12.6,-9.9,30.03,NE,45,0.0,1.3,35,0.00,,---,0.00,VWS V14.01,2013-02-08 05:29:00,
2013-02-08 00:35:00,12.6,-9.9,30.03,North,0,0.0,1.3,35,0.00,,---,0.00,VWS V14.01,2013-02-08 05:35:00,
2013-02-08 00:41:00,12.6,-9.9,30.03,NNE,22,1.3,1.6,35,0.00,,---,0.00,VWS V14.01,2013-02-08 05:41:00,
2013-02-08 00:46:00,12.6,-9.9,30.03,NNE,22,0.0,0.0,35,0.00,,---,0.00,VWS V14.01,2013-02-08 05:46:00,
2013-02-08 00:51:00,12.6,-9.9,30.06,NNE,22,0.0,0.0,35,0.00,,---,0.00,VWS V14.01,2013-02-08 05:51:00,
2013-02-08 00:56:00,12.6,-9.9,30.06,NNE,22,1.3,2.2,35,0.00,,---,0.00,VWS V14.01,2013-02-08 05:56:00,
2013-02-08 01:02:00,12.6,-9.9,30.06,ENE,68,0.0,0.0,35,0.00,,---,0.00,VWS V14.01,2013-02-08 06:02:00,
2013-02-08 01:09:00,12.6,-9.9,30.06,ENE,68,0.0,0.0,35,0.00,,---,0.00,VWS V14.01,2013-02-08 06:09:00,
2013-02-08 01:15:00,12.6,-9.9,30.06,ENE,68,0.0,0.0,35,0.00,,---,0.00,VWS V14.01,2013-02-08 06:15:00,
2013-02-08 01:20:00,12.6,-9.9,30.03,ENE,68,1.3,1.3,35,0.00,,---,0.00,VWS V14.01,2013-02-08 06:20:00,
2013-02-08 01:25:00,12.4,-10.1,30.03,ENE,68,2.5,2.5,35,0.00,,---,0.00,VWS V14.01,2013-02-08 06:25:00,
2013-02-08 01:31:00,12.4,-10.1,30.03,East,90,1.6,2.5,35,0.00,,---,0.00,VWS V14.01,2013-02-08 06:31:00,
2013-02-08 01:36:00,12.2,-10.2,30.06,East,90,1.6,1.6,35,0.00,,---,0.00,VWS V14.01,2013-02-08 06:36:00,
2013-02-08 01:42:00,12.2,-10.2,30.06,ENE,68,0.0,0.0,35,0.00,,---,0.00,VWS V14.01,2013-02-08 06:42:00,
2013-02-08 01:48:00,12.2,-10.2,30.06,ENE,68,0.0,0.0,35,0.00,,---,0.00,VWS V14.01,2013-02-08 06:48:00,
2013-02-08 01:54:00,12.2,-10.2,30.06,ENE,68,0.0,0.0,35,0.00,,---,0.00,VWS V14.01,2013-02-08 06:54:00,
2013-02-08 01:59:00,12.2,-10.2,30.06,WNW,292,0.0,0.0,35,0.00,,---,0.00,VWS V14.01,2013-02-08 06:59:00,
2013-02-08 02:06:00,12.0,-10.4,30.06,NNE,22,0.0,0.0,35,0.00,,---,0.00,VWS V14.01,2013-02-08 07:06:00,
2013-02-08 02:12:00,12.0,-10.4,30.06,NNE,22,0.0,1.3,35,0.00,,---,0.00,VWS V14.01,2013-02-08 07:12:00,
2013-02-08 02:18:00,12.0,-10.4,30.06,NNE,22,0.0,0.0,35,0.00,,---,0.00,VWS V14.01,2013-02-08 07:18:00,
2013-02-08 02:23:00,11.8,-10.5,30.06,ENE,68,0.0,1.6,35,0.00,,---,0.00,VWS V14.01,2013-02-08 07:23:00,
2013-02-08 02:29:00,11.8,-10.5,30.06,ENE,68,0.0,0.0,35,0.00,,---,0.00,VWS V14.01,2013-02-08 07:29:00,
2013-02-08 02:34:00,11.8,-10.5,30.03,ENE,68,1.6,1.6,35,0.00,,---,0.00,VWS V14.01,2013-02-08 07:34:00,
2013-02-08 02:40:00,11.7,-10.7,30.03,ENE,68,2.0,2.0,35,0.00,,---,0.00,VWS V14.01,2013-02-08 07:40:00,
2013-02-08 02:46:00,11.7,-10.7,30.03,ENE,68,0.0,0.0,35,0.00,,---,0.00,VWS V14.01,2013-02-08 07:46:00,
2013-02-08 02:51:00,11.7,-10.7,30.03,ENE,68,0.0,0.0,35,0.00,,---,0.00,VWS V14.01,2013-02-08 07:51:00,
2013-02-08 02:57:00,11.7,-10.7,30.03,ENE,68,0.0,0.0,35,0.00,,---,0.00,VWS V14.01,2013-02-08 07:57:00,
2013-02-08 03:02:00,11.5,-10.9,30.03,ENE,68,2.0,2.0,35,0.00,,---,0.00,VWS V14.01,2013-02-08 08:02:00,
2013-02-08 03:08:00,11.5,-10.9,30.03,ENE,68,0.0,0.0,35,0.00,,---,0.00,VWS V14.01,2013-02-08 08:08:00,
2013-02-08 03:14:00,11.3,-11.0,30.03,ENE,68,0.0,0.0,35,0.00,,---,0.00,VWS V14.01,2013-02-08 08:14:00,
2013-02-08 03:19:00,11.3,-11.0,30.03,ENE,68,0.0,0.0,35,0.00,,---,0.00,VWS V14.01,2013-02-08 08:19:00,
2013-02-08 03:25:00,11.3,-11.0,30.03,ENE,68,0.0,0.0,35,0.00,,---,0.00,VWS V14.01,2013-02-08 08:25:00,
2013-02-08 03:30:00,11.3,-11.0,30.03,ENE,68,0.0,0.0,35,0.00,,---,0.00,VWS V14.01,2013-02-08 08:30:00,
2013-02-08 03:36:00,11.3,-11.0,30.03,ENE,68,0.0,1.3,35,0.00,,---,0.00,VWS V14.01,2013-02-08 08:36:00,
2013-02-08 03:41:00,11.3,-11.0,30.03,ENE,68,1.6,2.2,35,0.00,,---,0.00,VWS V14.01,2013-02-08 08:41:00,
2013-02-08 03:47:00,11.1,-11.2,30.03,ENE,68,2.0,2.0,35,0.00,,---,0.00,VWS V14.01,2013-02-08 08:47:00,
2013-02-08 03:52:00,11.1,-11.2,30.00,ENE,68,2.2,2.2,35,0.00,,---,0.00,VWS V14.01,2013-02-08 08:52:00,
2013-02-08 03:58:00,10.9,-11.3,30.00,ENE,68,0.0,0.0,35,0.00,,---,0.00,VWS V14.01,2013-02-08 08:58:00,
2013-02-08 04:03:00,10.8,-11.5,30.00,ENE,68,0.0,0.0,35,0.00,,---,0.00,VWS V14.01,2013-02-08 09:03:00,
2013-02-08 04:08:00,10.8,-11.5,30.03,ENE,68,0.0,0.0,35,0.00,,---,0.00,VWS V14.01,2013-02-08 09:08:00,
2013-02-08 04:14:00,10.8,-11.5,30.03,NE,45,1.1,2.7,35,0.00,,---,0.00,VWS V14.01,2013-02-08 09:14:00,
2013-02-08 04:19:00,10.6,-11.7,30.03,NE,45,0.0,1.1,35,0.00,,---,0.00,VWS V14.01,2013-02-08 09:19:00,
2013-02-08 04:24:00,10.4,-11.8,30.03,NE,45,1.1,1.3,35,0.00,,---,0.00,VWS V14.01,2013-02-08 09:24:00,
2013-02-08 04:29:00,10.4,-11.8,30.03,NE,45,2.5,2.7,35,0.00,,---,0.00,VWS V14.01,2013-02-08 09:29:00,
2013-02-08 04:34:00,10.2,-12.0,30.00,NE,45,0.0,0.0,35,0.00,,---,0.00,VWS V14.01,2013-02-08 09:34:00,
2013-02-08 04:40:00,10.0,-12.1,30.00,NE,45,1.6,2.0,35,0.00,,---,0.00,VWS V14.01,2013-02-08 09:40:00,
2013-02-08 04:46:00,10.0,-12.1,30.00,NE,45,0.0,0.0,35,0.00,,---,0.00,VWS V14.01,2013-02-08 09:46:00,
2013-02-08 04:52:00,9.9,-12.3,30.00,NE,45,0.0,0.0,35,0.00,,---,0.00,VWS V14.01,2013-02-08 09:52:00,
2013-02-08 04:57:00,9.7,-12.5,30.00,NE,45,1.1,2.0,35,0.00,,---,0.00,VWS V14.01,2013-02-08 09:57:00,
2013-02-08 05:02:00,9.7,-12.5,30.00,NE,45,0.0,0.0,35,0.00,,---,0.00,VWS V14.01,2013-02-08 10:02:00,
2013-02-08 05:08:00,9.7,-12.5,30.00,NE,45,0.0,0.0,35,0.00,,---,0.00,VWS V14.01,2013-02-08 10:08:00,
2013-02-08 05:14:00,9.5,-12.6,30.00,NE,45,1.1,2.2,35,0.00,,---,0.00,VWS V14.01,2013-02-08 10:14:00,
2013-02-08 05:20:00,9.5,-12.6,30.00,NE,45,0.0,1.1,35,0.00,,---,0.00,VWS V14.01,2013-02-08 10:20:00,
2013-02-08 05:25:00,9.5,-12.6,30.00,NE,45,0.0,0.0,35,0.00,,---,0.00,VWS V14.01,2013-02-08 10:25:00,
2013-02-08 05:30:00,9.5,-12.6,30.00,NE,45,0.0,0.0,35,0.00,,---,0.00,VWS V14.01,2013-02-08 10:30:00,
2013-02-08 05:35:00,9.5,-12.6,30.00,NE,45,0.0,0.0,35,0.00,,---,0.00,VWS V14.01,2013-02-08 10:35:00,
2013-02-08 05:41:00,9.5,-12.6,30.00,NE,45,0.0,0.0,35,0.00,,---,0.00,VWS V14.01,2013-02-08 10:41:00,
2013-02-08 05:46:00,9.3,-12.8,30.00,NE,45,0.0,0.0,35,0.00,,---,0.00,VWS V14.01,2013-02-08 10:46:00,
2013-02-08 05:52:00,9.3,-12.8,30.00,NE,45,0.0,0.0,35,0.00,,---,0.00,VWS V14.01,2013-02-08 10:52:00,
2013-02-08 05:57:00,9.3,-12.8,30.00,NE,45,0.0,0.9,35,0.00,,---,0.00,VWS V14.01,2013-02-08 10:57:00,
2013-02-08 06:02:00,9.3,-12.8,30.00,NE,45,0.0,0.0,35,0.00,,---,0.00,VWS V14.01,2013-02-08 11:02:00,
2013-02-08 06:07:00,9.3,-12.8,30.00,NE,45,0.0,0.0,35,0.00,,---,0.00,VWS V14.01,2013-02-08 11:07:00,
2013-02-08 06:13:00,9.3,-12.8,30.00,NE,45,0.0,0.0,35,0.00,,---,0.00,VWS V14.01,2013-02-08 11:13:00,
2013-02-08 06:18:00,9.3,-12.8,30.00,NE,45,0.0,0.0,35,0.00,,---,0.00,VWS V14.01,2013-02-08 11:18:00,
2013-02-08 06:23:00,9.1,-12.9,30.00,NE,45,0.0,0.0,35,0.00,,---,0.00,VWS V14.01,2013-02-08 11:23:00,
2013-02-08 06:28:00,9.1,-12.9,30.00,NE,45,0.0,0.0,35,0.00,,---,0.00,VWS V14.01,2013-02-08 11:28:00,
2013-02-08 06:33:00,9.1,-12.9,30.00,NE,45,0.0,0.0,35,0.00,,---,0.00,VWS V14.01,2013-02-08 11:33:00,
2013-02-08 06:39:00,9.1,-12.9,30.00,NE,45,0.0,0.0,35,0.00,,---,0.00,VWS V14.01,2013-02-08 11:39:00,
2013-02-08 06:45:00,9.1,-12.9,30.00,NE,45,0.0,0.0,35,0.00,,---,0.00,VWS V14.01,2013-02-08 11:45:00,
2013-02-08 06:51:00,9.1,-12.9,30.00,NE,45,0.0,0.0,35,0.00,,---,0.00,VWS V14.01,2013-02-08 11:51:00,
2013-02-08 06:56:00,9.1,-12.9,30.00,NE,45,0.0,0.9,35,0.00,,---,0.00,VWS V14.01,2013-02-08 11:56:00,
2013-02-08 07:01:00,9.1,-12.9,30.00,NE,45,0.0,0.0,35,0.00,,---,0.00,VWS V14.01,2013-02-08 12:01:00,
2013-02-08 07:07:00,9.1,-12.9,30.00,NE,45,0.0,0.0,35,0.00,,---,0.00,VWS V14.01,2013-02-08 12:07:00,
2013-02-08 07:12:00,9.1,-12.9,30.00,NE,45,0.0,0.0,35,0.00,,---,0.00,VWS V14.01,2013-02-08 12:12:00,
2013-02-08 07:17:00,9.3,-12.8,30.00,NE,45,0.0,0.0,35,0.00,,---,0.00,VWS V14.01,2013-02-08 12:17:00,
2013-02-08 07:23:00,9.3,-12.8,30.00,NE,45,0.0,0.0,35,0.00,,---,0.00,VWS V14.01,2013-02-08 12:23:00,
2013-02-08 07:28:00,9.3,-12.8,30.00,NE,45,0.0,0.0,35,0.00,,---,0.00,VWS V14.01,2013-02-08 12:28:00,
2013-02-08 07:33:00,9.5,-12.6,30.00,NE,45,0.0,0.0,35,0.00,,---,0.00,VWS V14.01,2013-02-08 12:33:00,
2013-02-08 07:38:00,9.5,-12.6,30.00,NE,45,0.0,0.0,35,0.00,,---,0.00,VWS V14.01,2013-02-08 12:38:00,
2013-02-08 07:44:00,9.7,-12.5,30.00,NE,45,0.0,0.0,35,0.00,,---,0.00,VWS V14.01,2013-02-08 12:44:00,
2013-02-08 07:49:00,9.9,-12.3,30.00,NE,45,0.0,0.0,35,0.00,,---,0.00,VWS V14.01,2013-02-08 12:49:00,
2013-02-08 07:54:00,10.0,-12.1,30.00,NE,45,0.0,0.0,35,0.00,,---,0.00,VWS V14.01,2013-02-08 12:54:00,
2013-02-08 07:59:00,10.0,-12.1,30.00,NE,45,0.0,1.3,35,0.00,,---,0.00,VWS V14.01,2013-02-08 12:59:00,
2013-02-08 08:05:00,10.2,-12.0,30.00,NE,45,1.1,1.1,35,0.00,,---,0.00,VWS V14.01,2013-02-08 13:05:00,
2013-02-08 08:10:00,10.4,-11.8,30.00,NE,45,0.0,1.1,35,0.00,,---,0.00,VWS V14.01,2013-02-08 13:10:00,
2013-02-08 08:16:00,10.6,-11.7,30.00,West,270,0.0,1.3,35,0.00,,---,0.00,VWS V14.01,2013-02-08 13:16:00,
2013-02-08 08:21:00,10.8,-11.5,30.00,WSW,248,2.0,2.7,35,0.00,,---,0.00,VWS V14.01,2013-02-08 13:21:00,
2013-02-08 08:27:00,11.1,-11.2,30.00,South,180,0.0,0.0,35,0.00,,---,0.00,VWS V14.01,2013-02-08 13:27:00,
2013-02-08 08:33:00,11.3,-11.0,30.00,South,180,0.0,0.0,35,0.00,,---,0.00,VWS V14.01,2013-02-08 13:33:00,
2013-02-08 08:38:00,11.7,-10.7,30.00,SW,225,0.0,0.9,35,0.00,,---,0.00,VWS V14.01,2013-02-08 13:38:00,
2013-02-08 08:44:00,11.8,-10.5,30.00,South,180,0.0,0.0,35,0.00,,---,0.00,VWS V14.01,2013-02-08 13:44:00,
2013-02-08 08:50:00,12.0,-10.4,30.00,NNW,338,0.0,0.0,35,0.00,,---,0.00,VWS V14.01,2013-02-08 13:50:00,
2013-02-08 08:55:00,12.2,-10.2,30.00,SSW,202,1.3,2.0,35,0.00,,---,0.00,VWS V14.01,2013-02-08 13:55:00,
2013-02-08 09:00:00,12.6,-9.9,30.00,SW,225,0.0,0.9,35,0.00,,---,0.00,VWS V14.01,2013-02-08 14:00:00,
2013-02-08 09:06:00,12.6,-9.9,30.00,WNW,292,0.0,1.3,35,0.00,,---,0.00,VWS V14.01,2013-02-08 14:06:00,
2013-02-08 09:12:00,12.9,-9.6,30.00,WNW,292,0.9,1.1,35,0.00,,---,0.00,VWS V14.01,2013-02-08 14:12:00,
2013-02-08 09:17:00,13.3,-9.2,30.00,WSW,248,0.0,0.0,35,0.00,,---,0.00,VWS V14.01,2013-02-08 14:17:00,
2013-02-08 09:23:00,13.5,-9.1,29.97,West,270,0.0,0.9,35,0.00,,---,0.00,VWS V14.01,2013-02-08 14:23:00,
2013-02-08 09:28:00,14.2,2.1,29.97,West,270,0.0,0.0,58,0.00,,---,0.00,VWS V14.01,2013-02-08 14:28:00,
2013-02-08 09:34:00,14.4,2.3,29.97,West,270,1.3,1.3,58,0.00,,---,0.00,VWS V14.01,2013-02-08 14:34:00,
2013-02-08 09:39:00,14.9,2.4,29.97,SW,225,0.0,0.0,57,0.00,,---,0.00,VWS V14.01,2013-02-08 14:39:00,
2013-02-08 09:44:00,14.9,2.4,29.97,SW,225,0.0,0.0,57,0.00,,---,0.00,VWS V14.01,2013-02-08 14:44:00,
2013-02-08 09:50:00,15.1,2.6,29.97,SW,225,0.0,0.0,57,0.00,,---,0.00,VWS V14.01,2013-02-08 14:50:00,
2013-02-08 09:55:00,15.4,2.9,29.97,ESE,112,0.0,0.0,57,0.00,,---,0.00,VWS V14.01,2013-02-08 14:55:00,
2013-02-08 10:02:00,15.4,2.9,29.97,ESE,112,1.3,2.0,57,0.00,,---,0.00,VWS V14.01,2013-02-08 15:02:00,
2013-02-08 10:08:00,15.4,2.9,29.97,ENE,68,1.3,1.3,57,0.00,,---,0.00,VWS V14.01,2013-02-08 15:08:00,
2013-02-08 10:14:00,16.0,3.5,29.97,ENE,68,0.0,0.0,57,0.00,,---,0.00,VWS V14.01,2013-02-08 15:14:00,
2013-02-08 10:19:00,16.0,3.1,29.97,ENE,68,0.0,1.6,56,0.00,,---,0.00,VWS V14.01,2013-02-08 15:19:00,
2013-02-08 10:25:00,16.2,3.6,29.97,ENE,68,2.2,2.2,57,0.00,,---,0.00,VWS V14.01,2013-02-08 15:25:00,
2013-02-08 10:30:00,16.2,3.6,29.97,ESE,112,2.0,2.0,57,0.00,,---,0.00,VWS V14.01,2013-02-08 15:30:00,
2013-02-08 10:36:00,16.2,3.2,29.97,WNW,292,1.1,1.1,56,0.00,,---,0.00,VWS V14.01,2013-02-08 15:36:00,
2013-02-08 10:41:00,16.5,3.6,29.97,WSW,248,2.9,2.9,56,0.00,,---,0.00,VWS V14.01,2013-02-08 15:41:00,
2013-02-08 10:47:00,16.7,3.7,29.97,SSW,202,0.0,0.9,56,0.00,,---,0.00,VWS V14.01,2013-02-08 15:47:00,
2013-02-08 10:53:00,16.9,3.9,29.97,East,90,0.0,0.0,56,0.00,,---,0.00,VWS V14.01,2013-02-08 15:53:00,
2013-02-08 10:58:00,17.1,4.1,29.97,East,90,0.0,0.0,56,0.00,,---,0.00,VWS V14.01,2013-02-08 15:58:00,
2013-02-08 11:04:00,16.9,3.9,29.94,SSE,158,1.3,1.6,56,0.00,,---,0.00,VWS V14.01,2013-02-08 16:04:00,
2013-02-08 11:09:00,17.4,4.4,29.94,ENE,68,0.0,0.0,56,0.00,,---,0.00,VWS V14.01,2013-02-08 16:09:00,
2013-02-08 11:15:00,17.6,4.6,29.94,NNE,22,0.0,1.3,56,0.00,,---,0.00,VWS V14.01,2013-02-08 16:15:00,
2013-02-08 11:21:00,17.6,4.6,29.94,ENE,68,1.6,2.0,56,0.00,,---,0.00,VWS V14.01,2013-02-08 16:21:00,
2013-02-08 11:26:00,17.1,4.1,29.94,ENE,68,0.0,1.6,56,0.00,,---,0.00,VWS V14.01,2013-02-08 16:26:00,
2013-02-08 11:32:00,17.1,4.1,29.94,ENE,68,2.0,2.0,56,0.00,,---,0.00,VWS V14.01,2013-02-08 16:32:00,
2013-02-08 11:37:00,17.1,4.1,29.94,ENE,68,0.9,0.9,56,0.00,,---,0.00,VWS V14.01,2013-02-08 16:37:00,
2013-02-08 11:42:00,16.9,3.9,29.94,ENE,68,1.6,2.5,56,0.00,,---,0.00,VWS V14.01,2013-02-08 16:42:00,
2013-02-08 11:47:00,16.7,3.7,29.94,ENE,68,0.0,1.6,56,0.00,,---,0.00,VWS V14.01,2013-02-08 16:47:00,
2013-02-08 11:52:00,16.9,3.9,29.91,WNW,292,1.6,1.6,56,0.00,,---,0.00,VWS V14.01,2013-02-08 16:52:00,
2013-02-08 11:57:00,17.2,4.2,29.91,WSW,248,0.0,1.1,56,0.00,,---,0.00,VWS V14.01,2013-02-08 16:57:00,
2013-02-08 12:03:00,17.1,4.1,29.91,NNE,22,0.0,1.1,56,0.00,,---,0.00,VWS V14.01,2013-02-08 17:03:00,
2013-02-08 12:08:00,17.2,4.2,29.91,SW,225,1.1,1.1,56,0.00,,---,0.00,VWS V14.01,2013-02-08 17:08:00,
2013-02-08 12:14:00,17.4,4.4,29.91,SW,225,0.9,0.9,56,0.00,,---,0.00,VWS V14.01,2013-02-08 17:14:00,
2013-02-08 12:19:00,17.6,5.0,29.91,SSW,202,1.3,1.3,57,0.00,,---,0.00,VWS V14.01,2013-02-08 17:19:00,
2013-02-08 12:25:00,17.6,5.0,29.91,ENE,68,1.3,1.3,57,0.00,,---,0.00,VWS V14.01,2013-02-08 17:25:00,
2013-02-08 12:31:00,18.1,5.1,29.91,ENE,68,1.6,1.6,56,0.00,,---,0.00,VWS V14.01,2013-02-08 17:31:00,
2013-02-08 12:36:00,18.3,5.3,29.91,WNW,292,2.0,2.5,56,0.00,,---,0.00,VWS V14.01,2013-02-08 17:36:00,
2013-02-08 12:42:00,18.7,5.6,29.91,NNE,22,2.0,2.2,56,0.00,,---,0.00,VWS V14.01,2013-02-08 17:42:00,
2013-02-08 12:47:00,19.0,5.9,29.91,NE,45,0.0,0.0,56,0.00,,---,0.00,VWS V14.01,2013-02-08 17:47:00,
2013-02-08 12:52:00,19.0,5.9,29.88,NE,45,0.0,1.3,56,0.00,,---,0.00,VWS V14.01,2013-02-08 17:52:00,
2013-02-08 12:58:00,18.9,5.8,29.88,SSW,202,2.0,2.0,56,0.00,,---,0.00,VWS V14.01,2013-02-08 17:58:00,
2013-02-08 13:03:00,18.9,5.8,29.88,SSW,202,0.0,0.0,56,0.00,,---,0.00,VWS V14.01,2013-02-08 18:03:00,
2013-02-08 13:08:00,18.7,5.6,29.88,WNW,292,2.7,2.7,56,0.00,,---,0.00,VWS V14.01,2013-02-08 18:08:00,
2013-02-08 13:13:00,18.7,5.6,29.88,SSW,202,0.0,1.3,56,0.00,,---,0.00,VWS V14.01,2013-02-08 18:13:00,
2013-02-08 13:19:00,18.7,5.6,29.88,NW,315,1.3,1.3,56,0.00,,---,0.00,VWS V14.01,2013-02-08 18:19:00,
2013-02-08 13:24:00,18.5,5.8,29.88,SSW,202,2.7,2.7,57,0.00,,---,0.00,VWS V14.01,2013-02-08 18:24:00,
2013-02-08 13:29:00,18.7,6.0,29.88,ENE,68,2.0,2.0,57,0.00,,---,0.00,VWS V14.01,2013-02-08 18:29:00,
2013-02-08 13:35:00,19.0,6.3,29.88,SSW,202,0.9,2.0,57,0.00,,---,0.00,VWS V14.01,2013-02-08 18:35:00,
2013-02-08 13:40:00,18.9,6.2,29.88,WSW,248,2.0,3.1,57,0.00,,---,0.00,VWS V14.01,2013-02-08 18:40:00,
2013-02-08 13:45:00,18.5,5.8,29.88,SE,135,1.3,3.8,57,0.00,,---,0.00,VWS V14.01,2013-02-08 18:45:00,
2013-02-08 13:51:00,18.5,5.8,29.85,South,180,0.0,1.6,57,0.00,,---,0.00,VWS V14.01,2013-02-08 18:51:00,
2013-02-08 13:56:00,18.3,5.7,29.85,SW,225,2.5,2.7,57,0.00,,---,0.00,VWS V14.01,2013-02-08 18:56:00,
2013-02-08 14:01:00,18.5,5.8,29.85,WNW,292,3.1,3.1,57,0.00,,---,0.00,VWS V14.01,2013-02-08 19:01:00,
2013-02-08 14:06:00,18.5,6.2,29.85,West,270,0.9,2.0,58,0.00,,---,0.00,VWS V14.01,2013-02-08 19:06:00,
2013-02-08 14:11:00,18.7,6.7,29.85,SSW,202,0.9,2.5,59,0.00,,---,0.00,VWS V14.01,2013-02-08 19:11:00,
2013-02-08 14:16:00,18.7,6.4,29.85,SSW,202,0.0,0.0,58,0.00,,---,0.00,VWS V14.01,2013-02-08 19:16:00,
2013-02-08 14:21:00,18.7,6.4,29.85,SSE,158,1.1,2.0,58,0.00,,---,0.00,VWS V14.01,2013-02-08 19:21:00,
2013-02-08 14:27:00,18.7,6.4,29.85,WSW,248,2.0,2.0,58,0.00,,---,0.00,VWS V14.01,2013-02-08 19:27:00,
2013-02-08 14:32:00,18.7,6.4,29.85,WSW,248,1.6,2.2,58,0.00,,---,0.00,VWS V14.01,2013-02-08 19:32:00,
2013-02-08 14:38:00,18.9,6.5,29.82,South,180,1.1,1.1,58,0.00,,---,0.00,VWS V14.01,2013-02-08 19:38:00,
2013-02-08 14:44:00,18.5,6.6,29.82,NNE,22,1.3,1.6,59,0.00,,---,0.00,VWS V14.01,2013-02-08 19:44:00,
2013-02-08 14:49:00,18.7,6.7,29.82,West,270,0.0,1.1,59,0.00,,---,0.00,VWS V14.01,2013-02-08 19:49:00,
2013-02-08 14:55:00,18.7,6.7,29.82,SW,225,0.0,2.2,59,0.00,,---,0.00,VWS V14.01,2013-02-08 19:55:00,
2013-02-08 15:00:00,18.9,6.9,29.82,NW,315,1.6,2.2,59,0.00,,---,0.00,VWS V14.01,2013-02-08 20:00:00,
2013-02-08 15:06:00,18.7,6.7,29.82,ESE,112,1.6,4.3,59,0.00,,---,0.00,VWS V14.01,2013-02-08 20:06:00,
2013-02-08 15:12:00,18.5,6.6,29.82,SSW,202,2.0,2.0,59,0.00,,---,0.00,VWS V14.01,2013-02-08 20:12:00,
2013-02-08 15:17:00,18.3,6.8,29.82,WSW,248,0.0,0.9,60,0.00,,---,0.00,VWS V14.01,2013-02-08 20:17:00,
2013-02-08 15:23:00,18.3,6.8,29.79,ENE,68,0.0,0.0,60,0.00,,---,0.00,VWS V14.01,2013-02-08 20:23:00,
2013-02-08 15:28:00,18.1,6.6,29.79,WNW,292,0.0,1.1,60,0.00,,---,0.00,VWS V14.01,2013-02-08 20:28:00,
2013-02-08 15:33:00,18.1,6.6,29.79,NE,45,1.3,1.3,60,0.00,,---,0.00,VWS V14.01,2013-02-08 20:33:00,
2013-02-08 15:39:00,17.8,6.3,29.79,NNW,338,0.0,0.0,60,0.00,,---,0.00,VWS V14.01,2013-02-08 20:39:00,
2013-02-08 15:44:00,17.6,6.4,29.79,NNW,338,0.0,2.7,61,0.00,,---,0.00,VWS V14.01,2013-02-08 20:44:00,
2013-02-08 15:49:00,17.4,6.3,29.79,NNE,22,1.6,1.6,61,0.00,,---,0.00,VWS V14.01,2013-02-08 20:49:00,
2013-02-08 15:55:00,17.2,6.5,29.79,NNE,22,0.0,1.3,62,0.00,,---,0.00,VWS V14.01,2013-02-08 20:55:00,
2013-02-08 16:01:00,17.1,6.7,29.79,NNE,22,0.0,0.0,63,0.00,,---,0.00,VWS V14.01,2013-02-08 21:01:00,
2013-02-08 16:06:00,16.9,6.5,29.79,NW,315,1.6,2.9,63,0.00,,---,0.00,VWS V14.01,2013-02-08 21:06:00,
2013-02-08 16:11:00,16.7,6.7,29.79,SSW,202,2.0,3.1,64,0.00,,---,0.00,VWS V14.01,2013-02-08 21:11:00,
2013-02-08 16:17:00,16.5,6.5,29.79,WNW,292,0.0,0.0,64,0.00,,---,0.00,VWS V14.01,2013-02-08 21:17:00,
2013-02-08 16:22:00,16.5,6.5,29.79,SW,225,1.1,1.1,64,0.00,,---,0.00,VWS V14.01,2013-02-08 21:22:00,
2013-02-08 16:27:00,16.3,6.3,29.79,WNW,292,0.9,2.2,64,0.00,,---,0.00,VWS V14.01,2013-02-08 21:27:00,
2013-02-08 16:33:00,16.2,6.5,29.79,SSE,158,1.1,1.1,65,0.00,,---,0.00,VWS V14.01,2013-02-08 21:33:00,
2013-02-08 16:38:00,16.2,6.5,29.79,NW,315,2.7,2.7,65,0.00,,---,0.00,VWS V14.01,2013-02-08 21:38:00,
2013-02-08 16:44:00,16.2,6.8,29.79,SSW,202,1.3,1.3,66,0.00,,---,0.00,VWS V14.01,2013-02-08 21:44:00,
2013-02-08 16:49:00,16.2,6.8,29.76,ENE,68,1.1,1.1,66,0.00,,---,0.00,VWS V14.01,2013-02-08 21:49:00,
2013-02-08 16:55:00,16.2,6.8,29.76,NNE,22,1.1,2.5,66,0.00,,---,0.00,VWS V14.01,2013-02-08 21:55:00,
2013-02-08 17:00:00,16.2,7.5,29.76,NE,45,2.2,3.1,68,0.00,,---,0.00,VWS V14.01,2013-02-08 22:00:00,
2013-02-08 17:06:00,16.2,7.5,29.76,WNW,292,1.1,3.6,68,0.00,,---,0.00,VWS V14.01,2013-02-08 22:06:00,
2013-02-08 17:11:00,16.2,7.5,29.76,WSW,248,3.1,3.1,68,0.00,,---,0.00,VWS V14.01,2013-02-08 22:11:00,
2013-02-08 17:17:00,16.2,7.8,29.76,WNW,292,0.9,1.1,69,0.00,,---,0.00,VWS V14.01,2013-02-08 22:17:00,
2013-02-08 17:22:00,16.2,7.8,29.76,NE,45,3.8,3.8,69,0.00,,---,0.00,VWS V14.01,2013-02-08 22:22:00,
2013-02-08 17:27:00,16.0,7.6,29.76,SSE,158,1.3,1.6,69,0.00,,---,0.00,VWS V14.01,2013-02-08 22:27:00,
2013-02-08 17:33:00,16.0,7.6,29.76,NNE,22,0.0,0.9,69,0.00,,---,0.00,VWS V14.01,2013-02-08 22:33:00,
2013-02-08 17:38:00,16.0,7.3,29.76,ENE,68,1.6,1.6,68,0.00,,---,0.00,VWS V14.01,2013-02-08 22:38:00,
2013-02-08 17:44:00,16.0,7.6,29.76,SW,225,1.1,2.2,69,0.00,,---,0.00,VWS V14.01,2013-02-08 22:44:00,
2013-02-08 17:50:00,16.0,7.6,29.76,ENE,68,1.1,1.1,69,0.00,,---,0.00,VWS V14.01,2013-02-08 22:50:00,
2013-02-08 17:55:00,16.0,7.6,29.76,West,270,2.7,2.7,69,0.00,,---,0.00,VWS V14.01,2013-02-08 22:55:00,
2013-02-08 18:01:00,16.0,7.6,29.76,East,90,2.9,2.9,69,0.00,,---,0.00,VWS V14.01,2013-02-08 23:01:00,
2013-02-08 18:07:00,16.0,7.9,29.74,NNW,338,1.6,2.5,70,0.00,,---,0.00,VWS V14.01,2013-02-08 23:07:00,
2013-02-08 18:12:00,16.0,7.9,29.74,ESE,112,0.0,0.0,70,0.00,,---,0.00,VWS V14.01,2013-02-08 23:12:00,
2013-02-08 18:18:00,16.0,7.9,29.74,WSW,248,2.9,2.9,70,0.00,,---,0.00,VWS V14.01,2013-02-08 23:18:00,
2013-02-08 18:23:00,16.0,7.9,29.74,ENE,68,0.9,1.3,70,0.00,,---,0.00,VWS V14.01,2013-02-08 23:23:00,
2013-02-08 18:29:00,16.0,7.9,29.74,East,90,3.1,3.1,70,0.00,,---,0.00,VWS V14.01,2013-02-08 23:29:00,
2013-02-08 18:35:00,16.0,7.9,29.74,ENE,68,1.6,1.6,70,0.00,,---,0.00,VWS V14.01,2013-02-08 23:35:00,
2013-02-08 18:41:00,15.6,7.9,29.74,SW,225,2.0,2.0,71,0.00,,---,0.00,VWS V14.01,2013-02-08 23:41:00,
2013-02-08 18:47:00,15.4,8.0,29.74,NNW,338,1.3,1.3,72,0.00,,---,0.00,VWS V14.01,2013-02-08 23:47:00,
2013-02-08 18:52:00,15.4,8.0,29.74,NNE,22,1.6,2.5,72,0.00,,---,0.00,VWS V14.01,2013-02-08 23:52:00,
2013-02-08 18:58:00,15.4,8.0,29.74,NNE,22,2.5,2.5,72,0.00,,---,0.00,VWS V14.01,2013-02-08 23:58:00,
2013-02-08 19:03:00,15.4,7.7,29.74,NNE,22,2.7,2.7,71,0.00,,---,0.00,VWS V14.01,2013-02-09 00:03:00,
2013-02-08 19:08:00,15.3,7.6,29.71,NE,45,2.0,3.4,71,0.00,,---,0.00,VWS V14.01,2013-02-09 00:08:00,
2013-02-08 19:13:00,15.3,7.2,29.71,WNW,292,3.1,3.4,70,0.00,,---,0.00,VWS V14.01,2013-02-09 00:13:00,
2013-02-08 19:19:00,15.1,7.4,29.71,NNW,338,5.4,5.4,71,0.00,,---,0.00,VWS V14.01,2013-02-09 00:19:00,
2013-02-08 19:25:00,15.1,7.4,29.71,SSE,158,2.0,2.5,71,0.00,,---,0.00,VWS V14.01,2013-02-09 00:25:00,
2013-02-08 19:30:00,15.1,7.4,29.71,SSE,158,2.0,2.0,71,0.00,,---,0.00,VWS V14.01,2013-02-09 00:30:00,
2013-02-08 19:35:00,15.1,7.4,29.71,West,270,4.7,10.3,71,0.00,,---,0.00,VWS V14.01,2013-02-09 00:35:00,
2013-02-08 19:40:00,14.9,7.2,29.71,West,270,4.7,4.7,71,0.00,,---,0.00,VWS V14.01,2013-02-09 00:40:00,
2013-02-08 19:46:00,14.9,7.2,29.71,SSE,158,2.2,3.6,71,0.00,,---,0.00,VWS V14.01,2013-02-09 00:46:00,
2013-02-08 19:51:00,14.9,7.2,29.71,ESE,112,4.0,4.7,71,0.00,,---,0.00,VWS V14.01,2013-02-09 00:51:00,
2013-02-08 19:57:00,14.9,7.2,29.71,ENE,68,2.7,3.1,71,0.00,,---,0.00,VWS V14.01,2013-02-09 00:57:00,
2013-02-08 20:03:00,15.1,7.4,29.71,East,90,4.0,4.0,71,0.00,,---,0.00,VWS V14.01,2013-02-09 01:03:00,
2013-02-08 20:08:00,15.1,7.4,29.68,ENE,68,2.0,2.2,71,0.00,,---,0.00,VWS V14.01,2013-02-09 01:08:00,
2013-02-08 20:13:00,14.9,7.2,29.68,NNW,338,0.9,2.2,71,0.00,,---,0.00,VWS V14.01,2013-02-09 01:13:00,
2013-02-08 20:18:00,14.9,7.2,29.68,NNE,22,3.6,4.3,71,0.00,,---,0.00,VWS V14.01,2013-02-09 01:18:00,
2013-02-08 20:25:00,14.9,8.1,29.68,ENE,68,2.0,3.8,74,0.00,,---,0.00,VWS V14.01,2013-02-09 01:25:00,
2013-02-08 20:31:00,14.9,8.7,29.68,ESE,112,1.1,2.2,76,0.00,,---,0.00,VWS V14.01,2013-02-09 01:31:00,
2013-02-08 20:36:00,14.9,9.0,29.65,NNE,22,2.9,2.9,77,0.00,,---,0.00,VWS V14.01,2013-02-09 01:36:00,
2013-02-08 20:42:00,14.9,9.0,29.65,NE,45,2.7,4.0,77,0.00,,---,0.00,VWS V14.01,2013-02-09 01:42:00,
2013-02-08 20:48:00,14.9,9.0,29.65,ENE,68,2.2,3.1,77,0.00,,---,0.00,VWS V14.01,2013-02-09 01:48:00,
2013-02-08 20:53:00,14.9,8.7,29.68,ENE,68,2.0,2.7,76,0.00,,---,0.00,VWS V14.01,2013-02-09 01:53:00,
2013-02-08 20:59:00,14.9,8.4,29.68,ENE,68,2.0,3.6,75,0.00,,---,0.00,VWS V14.01,2013-02-09 01:59:00,
2013-02-08 21:05:00,14.7,7.9,29.65,NNE,22,2.2,4.7,74,0.00,,---,0.00,VWS V14.01,2013-02-09 02:05:00,
2013-02-08 21:10:00,14.7,7.7,29.65,NNE,22,1.3,2.0,73,0.00,,---,0.00,VWS V14.01,2013-02-09 02:10:00,
2013-02-08 21:15:00,14.5,7.2,29.65,East,90,3.1,3.1,72,0.00,,---,0.00,VWS V14.01,2013-02-09 02:15:00,
2013-02-08 21:21:00,14.5,7.2,29.62,NE,45,2.9,2.9,72,0.00,,---,0.00,VWS V14.01,2013-02-09 02:21:00,
2013-02-08 21:26:00,14.5,7.2,29.62,NE,45,2.7,4.9,72,0.00,,---,0.00,VWS V14.01,2013-02-09 02:26:00,
2013-02-08 21:32:00,14.5,7.2,29.62,East,90,2.7,2.7,72,0.00,,---,0.00,VWS V14.01,2013-02-09 02:32:00,
2013-02-08 21:37:00,14.5,7.5,29.62,WSW,248,2.7,3.6,73,0.00,,---,0.00,VWS V14.01,2013-02-09 02:37:00,
2013-02-08 21:42:00,14.5,7.5,29.62,SSE,158,2.7,2.7,73,0.00,,---,0.00,VWS V14.01,2013-02-09 02:42:00,
2013-02-08 21:47:00,14.5,7.2,29.62,ENE,68,3.8,3.8,72,0.00,,---,0.00,VWS V14.01,2013-02-09 02:47:00,
2013-02-08 21:52:00,14.5,7.2,29.62,ENE,68,1.1,2.5,72,0.00,,---,0.00,VWS V14.01,2013-02-09 02:52:00,
2013-02-08 21:58:00,14.5,8.1,29.62,NNW,338,2.0,3.8,75,0.00,,---,0.00,VWS V14.01,2013-02-09 02:58:00,
2013-02-08 22:03:00,14.5,8.4,29.59,West,270,4.0,4.0,76,0.00,,---,0.00,VWS V14.01,2013-02-09 03:03:00,
2013-02-08 22:08:00,14.5,8.4,29.59,ENE,68,1.6,5.6,76,0.00,,---,0.00,VWS V14.01,2013-02-09 03:08:00,
2013-02-08 22:13:00,14.5,8.4,29.59,WSW,248,1.1,1.6,76,0.00,,---,0.00,VWS V14.01,2013-02-09 03:13:00,
2013-02-08 22:18:00,14.5,8.7,29.59,East,90,4.9,4.9,77,0.00,,---,0.00,VWS V14.01,2013-02-09 03:18:00,
2013-02-08 22:23:00,14.5,8.4,29.59,ESE,112,1.6,3.1,76,0.00,,---,0.00,VWS V14.01,2013-02-09 03:23:00,
2013-02-08 22:28:00,14.5,8.4,29.59,ENE,68,3.4,3.4,76,0.00,,---,0.00,VWS V14.01,2013-02-09 03:28:00,
2013-02-08 22:33:00,14.5,8.1,29.59,SSE,158,2.9,6.3,75,0.00,,---,0.00,VWS V14.01,2013-02-09 03:33:00,
2013-02-08 22:38:00,14.4,7.9,29.59,ENE,68,2.9,3.8,75,0.00,,---,0.00,VWS V14.01,2013-02-09 03:38:00,
2013-02-08 22:43:00,14.4,7.9,29.59,NNW,338,2.2,2.2,75,0.00,,---,0.00,VWS V14.01,2013-02-09 03:43:00,
2013-02-08 22:48:00,14.4,7.9,29.56,East,90,4.3,4.3,75,0.00,,---,0.00,VWS V14.01,2013-02-09 03:48:00,
2013-02-08 22:55:00,14.4,7.6,29.56,SE,135,1.6,2.2,74,0.00,,---,0.00,VWS V14.01,2013-02-09 03:55:00,
2013-02-08 23:01:00,14.4,7.6,29.56,SE,135,5.6,5.6,74,0.00,,---,0.00,VWS V14.01,2013-02-09 04:01:00,
2013-02-08 23:06:00,14.4,7.6,29.56,ENE,68,2.2,4.3,74,0.00,,---,0.00,VWS V14.01,2013-02-09 04:06:00,
2013-02-08 23:11:00,14.4,7.6,29.56,SSW,202,8.5,8.5,74,0.00,,---,0.00,VWS V14.01,2013-02-09 04:11:00,
2013-02-08 23:17:00,14.4,7.6,29.56,ENE,68,1.6,2.7,74,0.00,,---,0.00,VWS V14.01,2013-02-09 04:17:00,
2013-02-08 23:22:00,14.4,7.9,29.56,East,90,2.9,3.1,75,0.00,,---,0.00,VWS V14.01,2013-02-09 04:22:00,
2013-02-08 23:27:00,14.4,8.8,29.56,ESE,112,4.7,4.7,78,0.00,,---,0.00,VWS V14.01,2013-02-09 04:27:00,
2013-02-08 23:33:00,14.4,9.1,29.56,ENE,68,4.7,4.7,79,0.00,,---,0.00,VWS V14.01,2013-02-09 04:33:00,
2013-02-08 23:38:00,14.5,9.5,29.53,ENE,68,2.2,3.6,80,0.00,,---,0.00,VWS V14.01,2013-02-09 04:38:00,
2013-02-08 23:43:00,14.5,9.8,29.53,ENE,68,2.0,2.9,81,0.00,,---,0.00,VWS V14.01,2013-02-09 04:43:00,
2013-02-08 23:48:00,14.5,9.5,29.53,SSW,202,2.9,7.2,80,0.00,,---,0.00,VWS V14.01,2013-02-09 04:48:00,
2013-02-08 23:53:00,14.5,9.8,29.53,SSE,158,4.9,4.9,81,0.00,,---,0.00,VWS V14.01,2013-02-09 04:53:00,
2013-02-08 23:59:00,14.5,9.8,29.53,West,270,3.4,3.4,81,0.00,,---,0.00,VWS V14.01,2013-02-09 04:59:00,